Terminal Aerodrome Forecast
Issued by NWS Cleveland, OH

Home | Current Version | Previous Version | Text Only | Print | Product List | Glossary Off
Versions: 1 2 3 4 5 6 7 8 9 10 11 12 13 14 15 16 17 18 19 20 21 22 23 24 25 26 27 28

000
FTUS41 KCLE 291000 AAA
TAFMFD
TAF AMD
KMFD 291048Z 2911/3006 VRB03KT P6SM SCT250
      TEMPO 2911/2913 3SM BR
     FM291500 30005KT P6SM SKC
     FM300000 24003KT P6SM BKN250=

USA.gov is the U.S. government's official web portal to all federal, state and local government web resources and services.